Latest Coastal Weather Observations for Learmonth

IDW60701

Issued at 7:42 am WST Monday 2 March 2015 (issued every 10 minutes, with the page automatically refreshed every 10 minutes)

About coastal observations | Map of coastal stations | Coastal observations for WA | Marine services | Other Formats
Station Details ID: 005007 Name: LEARMONTH AIRPORT Lat: -22.24 Lon: 114.10 Height: 5.0 m
Data from the previous 72 hours. | See also: Recent months at Learmonth
Date/Time
WST
Temp

°C
Wind Pressure Rain
since 9am
mm
Weather Cloud Vis
km
Sea
Height
m
Swell
Dir
 
Speed
knots
Gust
knots
hPa Trend Height
m
Period
s
Dir
02/07:30am 24.9 SW 6 8 1007.9 - 0.0 - - 10 - - - -
02/07:00am 23.7 SSW 5 7 1007.5 - 0.0 - - 10 - - - -
02/06:30am 22.8 SW 5 6 1007.5 - 0.0 - - 10 - - - -
02/06:00am 23.0 SSW 5 6 1007.2 F 0.0 Fine Mostly clear 25 - - - -
02/05:30am 23.2 SSW 5 6 1007.1 - 0.0 - - 10 - - - -
02/05:00am 23.4 SSW 7 8 1007.0 - 0.0 - - 10 - - - -
02/04:30am 23.8 SSW 7 9 1007.0 - 0.0 - - 10 - - - -
02/04:00am 24.1 SSW 8 10 1007.0 - 0.0 - Partly cloudy 10 - - - -
02/03:30am 24.0 SSW 6 8 1007.1 - 0.0 - - 10 - - - -
02/03:00am 24.1 SSW 6 7 1007.0 - 0.0 - - 10 - - - -
02/02:30am 24.3 SSW 7 9 1007.2 - 0.0 - - 10 - - - -
02/02:00am 24.5 SSW 7 9 1007.4 - 0.0 - - 10 - - - -
02/01:30am 24.9 SSW 7 10 1007.4 - 0.0 - Partly cloudy 10 - - - -
02/01:00am 25.1 SSW 7 9 1007.7 - 0.0 - Partly cloudy 10 - - - -
02/12:30am 25.2 SSW 9 11 1007.6 - 0.0 - Partly cloudy 10 - - - -
02/12:00am 25.5 SSW 10 12 1007.5 - 0.0 - - 10 - - - -
 
Date/Time
WST
Temp

°C
Wind Pressure Rain
since 9am
mm
Weather Cloud Vis
km
Sea
Height
m
Swell
Dir
 
Speed
knots
Gust
knots
hPa Trend Height
m
Period
s
Dir
01/11:30pm 25.8 SW 10 13 1007.8 - 0.0 - - 10 - - - -
01/11:00pm 25.9 SW 13 17 1007.9 - 0.0 - - 10 - - - -
01/10:30pm 26.1 SW 11 16 1007.9 - 0.0 - Partly cloudy 10 - - - -
01/10:00pm 26.1 SW 13 17 1007.9 - 0.0 - - 10 - - - -
01/09:30pm 26.2 WSW 12 16 1007.7 - 0.0 - - 10 - - - -
01/09:00pm 26.4 WSW 12 17 1007.3 - 0.0 - - 10 - - - -
01/08:30pm 26.6 WSW 14 18 1007.1 - 0.0 - - 10 - - - -
01/08:00pm 26.9 WSW 13 17 1006.7 - 0.0 - - 10 - - - -
01/07:30pm 27.2 WSW 14 18 1006.2 - 0.0 - - 10 - - - -
01/07:00pm 27.7 WSW 13 17 1005.7 - 0.0 - - 10 - - - -
01/06:30pm 28.4 W 15 18 1005.5 - 0.0 - - 10 - - - -
01/06:00pm 29.5 WSW 15 19 1005.1 - 0.0 - - 10 - - - -
01/05:30pm 29.9 WSW 14 19 1005.0 - 0.0 - - 10 - - - -
01/05:00pm 30.7 WSW 14 19 1005.0 - 0.0 - - 10 - - - -
01/04:30pm 31.3 W 14 18 1005.1 - 0.0 - - 10 - - - -
01/04:00pm 31.6 W 13 17 1005.2 - 0.0 - - 10 - - - -
01/03:30pm 31.9 W 15 22 1005.4 - 0.0 - - 10 - - - -
01/03:00pm 32.4 W 12 18 1005.4 - 0.0 - - 10 - - - -
01/02:30pm 32.0 W 15 21 1005.8 - 0.0 - - 10 - - - -
01/02:00pm 33.2 W 13 18 1006.1 - 0.0 - - 10 - - - -
01/01:30pm 33.2 W 12 19 1006.3 - 0.0 - - 10 - - - -
01/01:00pm 32.9 W 12 16 1006.7 - 0.0 - - 10 - - - -
01/12:30pm 32.4 W 11 15 1007.0 - 0.0 - Partly cloudy 10 - - - -
01/12:00pm 32.3 W 11 17 1007.3 - 0.0 - - 10 - - - -
01/11:30am 31.5 W 12 16 1007.6 - 0.0 - Partly cloudy 10 - - - -
01/11:00am 31.2 WSW 13 17 1007.7 - 0.0 - Partly cloudy 10 - - - -
01/10:30am 30.7 W 14 20 1007.8 - 0.0 - Partly cloudy 10 - - - -
01/10:00am 30.8 W 14 20 1008.1 - 0.0 - Partly cloudy 10 - - - -
01/09:30am 29.4 WSW 13 17 1008.3 - 0.0 - Partly cloudy 10 - - - -
01/09:00am 28.8 W 13 18 1008.0 - 0.0 - Partly cloudy 10 - - - -
01/08:30am 27.7 WSW 15 19 1007.8 - 0.0 - Partly cloudy 10 - - - -
01/08:00am 27.5 WSW 13 16 1007.6 - 0.0 - Partly cloudy - - - - -
01/07:30am 26.3 WSW 10 13 1007.6 - 0.0 - - 10 - - - -
01/07:00am 25.8 SW 10 14 1007.3 - 0.0 - Partly cloudy 10 - - - -
01/06:30am 25.4 SW 8 12 1007.0 - 0.0 - Partly cloudy 10 - - - -
01/06:00am 25.1 WSW 10 14 1006.4 - 0.0 - - 10 - - - -
01/05:30am 25.0 WSW 10 13 1006.3 - 0.0 - - 10 - - - -
01/05:00am 25.0 W 11 14 1006.1 - 0.0 - - 10 - - - -
01/04:30am 25.1 WSW 9 11 1006.0 - 0.0 - - 10 - - - -
01/04:00am 25.3 SW 8 11 1005.9 - 0.0 - Partly cloudy 10 - - - -
01/03:30am 25.4 WSW 10 12 1005.8 - 0.0 - Partly cloudy 10 - - - -
01/03:00am 25.5 WSW 11 15 1005.7 - 0.0 - Cloudy 10 - - - -
01/02:30am 25.3 WSW 11 14 1005.9 - 0.0 - - 10 - - - -
01/02:00am 25.3 WSW 11 14 1006.3 - 0.0 - - 10 - - - -
01/01:30am 25.4 WSW 11 15 1006.4 - 0.0 - Partly cloudy 10 - - - -
01/01:00am 25.8 WSW 12 16 1006.5 - 0.0 - Partly cloudy 10 - - - -
01/12:30am 26.1 SW 10 14 1006.5 - 0.0 - Partly cloudy 10 - - - -
01/12:00am 26.2 WSW 9 12 1006.6 - 0.0 - - 10 - - - -
 
Date/Time
WST
Temp

°C
Wind Pressure Rain
since 9am
mm
Weather Cloud Vis
km
Sea
Height
m
Swell
Dir
 
Speed
knots
Gust
knots
hPa Trend Height
m
Period
s
Dir
28/11:30pm 26.1 SW 8 10 1007.3 - 0.0 - - 10 - - - -
28/11:00pm 26.1 SW 7 11 1007.7 - 0.0 - - 10 - - - -
28/10:30pm 26.1 SW 11 13 1008.0 - 0.0 - - 10 - - - -
28/10:00pm 26.1 SW 12 17 1008.1 - 0.0 - - 10 - - - -
28/09:30pm 26.3 SW 13 21 1007.7 - 0.0 - - 10 - - - -
28/09:00pm 26.5 SW 14 19 1007.2 - 0.0 - - 10 - - - -
28/08:30pm 26.5 SW 15 19 1007.0 - 0.0 - - 10 - - - -
28/08:00pm 26.6 WSW 17 21 1006.5 - 0.0 - - 10 - - - -
28/07:30pm 26.9 WSW 16 20 1006.1 - 0.0 - - 10 - - - -
28/07:00pm 27.2 WSW 16 24 1005.4 - 0.0 - - 10 - - - -
28/06:30pm 28.1 WSW 19 25 1005.1 - 0.0 - - 10 - - - -
28/06:00pm 29.2 W 19 25 1004.6 - 0.0 - - 10 - - - -
28/05:30pm 30.8 W 19 23 1004.4 - 0.0 - - 10 - - - -
28/05:00pm 31.8 W 19 23 1004.5 - 0.0 - - 10 - - - -
28/04:30pm 32.3 W 17 21 1004.5 - 0.0 - - 10 - - - -
28/04:00pm 33.5 W 16 20 1004.8 - 0.0 - - 10 - - - -
28/03:30pm 33.5 W 16 21 1005.0 - 0.0 - - 10 - - - -
28/03:00pm 33.5 W 19 23 1005.1 - 0.0 - - 10 - - - -
28/02:30pm 33.5 W 18 24 1005.4 - 0.0 - - 10 - - - -
28/02:00pm 33.9 W 18 24 1005.7 - 0.0 - - 10 - - - -
28/01:30pm 35.3 W 18 25 1005.8 - 0.0 - - 10 - - - -
28/01:17pm 35.5 W 15 21 1005.8 - 0.0 - - 10 - - - -
28/01:00pm 33.9 NNE 8 10 1006.0 - 0.0 - - 10 - - - -
28/12:30pm 33.9 E 8 10 1006.4 - 0.0 - - 10 - - - -
28/12:00pm 33.7 E 11 12 1006.6 - 0.0 - - 10 - - - -
28/11:30am 34.3 SW 7 12 1007.2 - 0.0 - - 10 - - - -
28/11:00am 34.2 SW 8 13 1007.5 - 0.0 - - 10 - - - -
28/10:30am 32.4 SW 7 15 1007.7 - 0.0 - - 10 - - - -
28/10:00am 31.5 SSW 8 13 1008.0 - 0.0 - - 10 - - - -
28/09:30am 31.0 SSW 10 14 1008.1 - 0.0 - - 10 - - - -
28/09:00am 29.5 SW 12 15 1007.9 - 0.0 - - 10 - - - -
28/08:30am 28.1 SW 13 17 1007.9 - 0.0 - - 10 - - - -
28/08:00am 26.9 SW 13 16 1007.9 - 0.0 - - 10 - - - -
28/07:30am 25.4 SW 11 14 1007.9 - 0.0 - - 10 - - - -
28/07:00am 24.8 SW 13 18 1007.3 - 0.0 - - 10 - - - -
28/06:30am 24.6 SW 13 16 1007.2 - 0.0 - - 10 - - - -
28/06:00am 24.5 SW 11 14 1007.1 - 0.0 - - 10 - - - -
28/05:30am 24.4 SW 10 14 1007.3 - 0.0 - - 10 - - - -
28/05:00am 24.5 SW 11 14 1007.3 - 0.0 - - 10 - - - -
28/04:30am 24.6 SW 10 13 1007.3 - 0.0 - - 10 - - - -
28/04:00am 24.6 SW 11 13 1007.0 - 0.0 - - 10 - - - -
28/03:30am 24.6 SW 11 15 1006.8 - 0.0 - - 10 - - - -
28/03:00am 24.6 SSW 11 15 1006.8 - 0.0 - - 10 - - - -
28/02:30am 24.7 SSW 11 15 1006.9 - 0.0 - - 10 - - - -
28/02:00am 24.9 SSW 11 15 1007.1 - 0.0 - - 10 - - - -
28/01:30am 24.9 SW 12 16 1007.0 - 0.0 - - 10 - - - -
28/01:00am 24.9 SSW 11 14 1007.1 - 0.0 - - 10 - - - -
28/12:30am 25.0 SSW 12 16 1007.3 - 0.0 - - 10 - - - -
28/12:00am 25.2 SSW 13 17 1007.5 - 0.0 - - 10 - - - -
 
Date/Time
WST
Temp

°C
Wind Pressure Rain
since 9am
mm
Weather Cloud Vis
km
Sea
Height
m
Swell
Dir
 
Speed
knots
Gust
knots
hPa Trend Height
m
Period
s
Dir
27/11:30pm 25.4 SSW 15 20 1007.5 - 0.0 - - 10 - - - -
27/11:00pm 25.8 SSW 14 19 1007.6 - 0.0 - - 10 - - - -
27/10:30pm 26.0 SSW 15 19 1007.5 - 0.0 - - 10 - - - -
27/10:00pm 26.2 SSW 15 18 1007.5 - 0.0 - - 10 - - - -
27/09:30pm 26.1 SW 16 23 1007.4 - 0.0 - - 10 - - - -
27/09:00pm 26.2 SSW 16 21 1007.3 - 0.0 - - 10 - - - -
27/08:30pm 26.5 SSW 17 22 1007.0 - 0.0 - - 10 - - - -
27/08:00pm 27.3 SW 15 22 1006.5 - 0.0 - Partly cloudy 10 - - - -
27/07:30pm 28.3 SW 16 21 1006.1 - 0.0 - - 10 - - - -
27/07:00pm 29.3 SW 17 23 1005.4 - 0.0 - - 10 - - - -
27/06:30pm 30.4 SW 19 23 1005.0 - 0.0 - - 10 - - - -
27/06:00pm 31.6 WSW 19 23 1004.5 - 0.0 - - 10 - - - -
27/05:30pm 31.9 WSW 19 26 1004.4 - 0.0 - - 10 - - - -
27/05:00pm 33.0 WSW 19 26 1004.5 - 0.0 - - 10 - - - -
27/04:30pm 34.2 SW 17 23 1004.5 - 0.0 - - 10 - - - -
27/04:00pm 34.3 SW 14 21 1004.6 - 0.0 - Partly cloudy 10 - - - -
27/03:30pm 34.8 SW 14 21 1004.7 - 0.0 - Partly cloudy 10 - - - -
27/03:00pm 33.9 S 11 13 1004.8 - 0.0 - Partly cloudy 10 - - - -
27/02:30pm 35.0 SSW 9 15 1005.3 - 0.0 - Partly cloudy 10 - - - -
27/02:00pm 34.2 SW 6 12 1005.5 - 0.0 - Partly cloudy 10 - - - -
27/01:30pm 34.0 SW 8 12 1005.9 - 0.0 - Partly cloudy 10 - - - -
27/01:00pm 33.5 SSW 6 14 1006.3 - 0.0 - Partly cloudy 10 - - - -
27/12:30pm 33.3 SW 10 15 1006.8 - 0.0 - Partly cloudy 10 - - - -
27/12:00pm 33.5 WSW 9 15 1007.1 - 0.0 - Mostly clear 10 - - - -
27/11:30am 33.7 WSW 10 15 1007.6 - 0.0 - Partly cloudy 10 - - - -
27/11:00am 31.7 SW 10 14 1008.0 - 0.0 - Partly cloudy 10 - - - -
27/10:30am 31.0 SSW 9 12 1008.2 - 0.0 - Partly cloudy 10 - - - -
27/10:00am 29.2 SSW 10 15 1008.6 - 0.0 - Partly cloudy 10 - - - -
27/09:30am 28.7 SSW 11 13 1008.6 - 0.0 - Partly cloudy 10 - - - -
27/09:00am 28.0 SSW 11 15 1008.6 - 0.0 - Partly cloudy 10 - - - -
27/08:30am 26.4 SSW 12 15 1008.8 - 0.0 - Partly cloudy 10 - - - -
27/08:00am 26.2 SSW 13 16 1008.7 - 0.0 - Partly cloudy 10 - - - -

Other Formats:

Comma delimited format used in spreadsheet applications
http://www.bom.gov.au/fwo/IDW60701/IDW60701.94302.axf

JavaScript Object Notation format (JSON) in row-major order
http://www.bom.gov.au/fwo/IDW60701/IDW60701.94302.json